createdAt,value
2022-12-13T00:01:22.491Z,100511.97
2022-12-13T00:03:49.367Z,100485.22
2022-12-13T00:06:16.128Z,100503.31
2022-12-13T00:08:42.945Z,100483.63
2022-12-13T00:11:13.115Z,100487.13
2022-12-13T00:13:41.845Z,100496.69
2022-12-13T00:16:12.607Z,100477.66
2022-12-13T00:18:41.985Z,100480.25
2022-12-13T00:21:13.157Z,100485.38
2022-12-13T00:23:42.471Z,100487.88
2022-12-13T00:26:13.857Z,100484.56
2022-12-13T00:28:41.597Z,100453.53
2022-12-13T00:31:51.815Z,100440.59
2022-12-13T00:33:55.878Z,100444.09
2022-12-13T00:36:22.653Z,100466.53
2022-12-13T00:39:00.677Z,100427.72
2022-12-13T00:41:32.763Z,100456.19
2022-12-13T00:44:00.201Z,100425.34
2022-12-13T00:46:27.591Z,100430.41
2022-12-13T00:48:57.193Z,100492.88
2022-12-13T00:51:24.890Z,100488.66
2022-12-13T00:53:51.593Z,100422.31
2022-12-13T00:56:21.891Z,100460.31
2022-12-13T00:58:52.201Z,100416.25
2022-12-13T01:01:24.657Z,100497.88
2022-12-13T01:03:55.862Z,100441.16
2022-12-13T01:06:44.511Z,100434.16
2022-12-13T01:09:20.506Z,100454.06
2022-12-13T01:11:48.414Z,100485.03
2022-12-13T01:14:16.445Z,100436.00
2022-12-13T01:16:43.322Z,100440.16
2022-12-13T01:19:10.086Z,100417.13
2022-12-13T01:21:36.794Z,100418.50
2022-12-13T01:24:05.731Z,100474.47
2022-12-13T01:26:33.431Z,100421.94
2022-12-13T01:29:00.308Z,100447.00
2022-12-13T01:31:27.449Z,100468.72
2022-12-13T01:33:54.221Z,100480.78
2022-12-13T01:36:28.021Z,100411.66
2022-12-13T01:38:58.582Z,100449.66
2022-12-13T01:41:27.365Z,100479.88
2022-12-13T01:44:01.432Z,100465.94
2022-12-13T01:46:28.334Z,100405.66
2022-12-13T01:49:19.967Z,100410.81
2022-12-13T01:51:54.606Z,100480.69
2022-12-13T01:54:34.120Z,100437.56
2022-12-13T01:57:05.526Z,100404.84
2022-12-13T01:59:34.632Z,100455.53
2022-12-13T02:02:01.702Z,100464.69
2022-12-13T02:04:46.833Z,100401.91
2022-12-13T02:07:23.001Z,100447.59
2022-12-13T02:09:56.419Z,100447.53
2022-12-13T02:12:29.839Z,100398.44
2022-12-13T02:15:00.833Z,100393.16
2022-12-13T02:17:33.455Z,100479.50
2022-12-13T02:20:21.400Z,100472.69
2022-12-13T02:23:16.036Z,100420.88
2022-12-13T02:26:07.223Z,100465.91
2022-12-13T02:28:48.840Z,100464.97
2022-12-13T02:31:26.508Z,100387.50
2022-12-13T02:34:07.242Z,100407.50
2022-12-13T02:36:55.713Z,100459.03
2022-12-13T02:39:47.159Z,100407.94
2022-12-13T02:42:25.541Z,100450.25
2022-12-13T02:45:20.364Z,100447.97
2022-12-13T02:47:50.053Z,100401.41
2022-12-13T02:50:17.057Z,100348.91
2022-12-13T02:52:46.667Z,100434.38
2022-12-13T02:55:16.498Z,100435.31
2022-12-13T02:57:48.161Z,100384.72
2022-12-13T03:00:19.529Z,100346.66
2022-12-13T03:03:20.159Z,100416.03
2022-12-13T03:06:33.232Z,100423.47
2022-12-13T03:09:33.202Z,100427.03
2022-12-13T03:12:30.700Z,100390.81
2022-12-13T03:15:18.262Z,100398.41
2022-12-13T03:17:52.388Z,100374.06
2022-12-13T03:20:24.550Z,100385.16
2022-12-13T03:22:55.378Z,100410.78
2022-12-13T03:25:32.005Z,100414.00
2022-12-13T03:28:01.248Z,100404.13
2022-12-13T03:30:30.924Z,100381.59
2022-12-13T03:32:57.594Z,100406.78
2022-12-13T03:35:25.348Z,100403.50
2022-12-13T03:38:02.290Z,100385.34
2022-12-13T03:40:30.388Z,100369.09
2022-12-13T03:42:57.329Z,100381.28
2022-12-13T03:45:24.221Z,100399.47
2022-12-13T03:47:51.214Z,100414.22
2022-12-13T03:50:26.189Z,100368.50
2022-12-13T03:53:02.175Z,100398.69
2022-12-13T03:55:29.009Z,100399.53
2022-12-13T03:57:56.271Z,100362.56
2022-12-13T04:00:23.156Z,100384.00
2022-12-13T04:02:50.188Z,100392.88
2022-12-13T04:05:17.310Z,100346.31
2022-12-13T04:07:48.392Z,100418.66
2022-12-13T04:10:25.984Z,100354.91
2022-12-13T04:13:12.961Z,100377.22
2022-12-13T04:15:39.944Z,100387.88
2022-12-13T04:18:06.971Z,100402.56
2022-12-13T04:20:33.702Z,100368.09
2022-12-13T04:23:00.755Z,100395.41
2022-12-13T04:25:37.936Z,100398.91
2022-12-13T04:28:04.725Z,100406.50
2022-12-13T04:30:31.556Z,100367.97
2022-12-13T04:32:58.318Z,100346.13
2022-12-13T04:35:25.094Z,100325.47
2022-12-13T04:37:51.830Z,100382.28
2022-12-13T04:40:21.628Z,100373.88
2022-12-13T04:42:53.965Z,100381.69
2022-12-13T04:45:22.001Z,100404.97
2022-12-13T04:47:49.042Z,100400.59
2022-12-13T04:50:16.034Z,100380.66
2022-12-13T04:52:42.773Z,100396.78
2022-12-13T04:55:09.654Z,100357.03
2022-12-13T04:57:36.392Z,100377.56
2022-12-13T05:00:04.980Z,100375.91
2022-12-13T05:02:31.691Z,100326.63
2022-12-13T05:04:58.528Z,100322.66
2022-12-13T05:07:26.557Z,100378.81
2022-12-13T05:09:53.221Z,100391.75
2022-12-13T05:12:22.853Z,100362.31
2022-12-13T05:14:51.654Z,100356.34
2022-12-13T05:17:18.375Z,100372.47
2022-12-13T05:19:45.043Z,100387.75
2022-12-13T05:22:20.808Z,100373.31
2022-12-13T05:24:48.527Z,100396.47
2022-12-13T05:27:25.575Z,100398.59
2022-12-13T05:30:04.489Z,100359.59
2022-12-13T05:32:43.182Z,100376.56
2022-12-13T05:35:22.800Z,100326.25
2022-12-13T05:37:53.944Z,100404.34
2022-12-13T05:40:24.756Z,100403.50
2022-12-13T05:42:51.555Z,100376.00
2022-12-13T05:45:19.222Z,100350.22
2022-12-13T05:47:46.821Z,100399.53
2022-12-13T05:50:15.281Z,100345.41
2022-12-13T05:52:43.299Z,100341.91
2022-12-13T05:55:10.871Z,100367.06
2022-12-13T05:57:38.114Z,100311.13
2022-12-13T06:00:29.992Z,100341.53
2022-12-13T06:02:54.917Z,100357.94
2022-12-13T06:05:21.649Z,100376.78
2022-12-13T06:07:52.196Z,100326.00
2022-12-13T06:10:23.590Z,100362.13
2022-12-13T06:12:50.555Z,100320.72
2022-12-13T06:15:22.702Z,100343.94
2022-12-13T06:17:49.687Z,100321.69
2022-12-13T06:20:23.856Z,100337.16
2022-12-13T06:22:52.550Z,100324.44
2022-12-13T06:25:31.302Z,100340.94
2022-12-13T06:28:00.928Z,100326.97
2022-12-13T06:30:28.888Z,100344.25
2022-12-13T06:32:55.697Z,100371.56
2022-12-13T06:35:27.469Z,100308.75
2022-12-13T06:38:01.693Z,100361.09
2022-12-13T06:40:33.826Z,100393.78
2022-12-13T06:43:00.932Z,100375.84
2022-12-13T06:45:27.909Z,100355.06
2022-12-13T06:47:56.198Z,100381.66
2022-12-13T06:50:23.049Z,100311.25
2022-12-13T06:52:49.803Z,100347.44
2022-12-13T06:55:23.532Z,100324.22
2022-12-13T06:57:51.728Z,100372.38
2022-12-13T07:00:22.349Z,100347.56
2022-12-13T07:02:55.268Z,100374.38
2022-12-13T07:05:22.760Z,100304.69
2022-12-13T07:07:49.691Z,100279.00
2022-12-13T07:10:21.844Z,100362.22
2022-12-13T07:12:49.839Z,100381.00
2022-12-13T07:15:16.716Z,100362.88
2022-12-13T07:17:46.575Z,100345.38
2022-12-13T07:20:15.244Z,100358.16
2022-12-13T07:22:47.817Z,100363.03
2022-12-13T07:25:27.205Z,100338.47
2022-12-13T07:28:01.711Z,100374.06
2022-12-13T07:30:40.603Z,100334.53
2022-12-13T07:33:09.224Z,100330.13
2022-12-13T07:35:37.061Z,100362.88
2022-12-13T07:38:07.054Z,100276.81
2022-12-13T07:40:35.213Z,100326.81
2022-12-13T07:43:01.962Z,100327.53
2022-12-13T07:45:29.122Z,100356.78
2022-12-13T07:47:55.820Z,100330.28
2022-12-13T07:50:23.927Z,100401.78
2022-12-13T07:52:52.022Z,100355.38
2022-12-13T07:55:18.788Z,100301.06
2022-12-13T07:57:50.117Z,100313.72
2022-12-13T08:00:17.276Z,100314.44
2022-12-13T08:10:49.000Z,100389.13
2022-12-13T08:13:16.364Z,100352.69
2022-12-13T08:34:32.514Z,100396.19
2022-12-13T08:53:10.658Z,100433.38
2022-12-13T08:58:44.418Z,100405.44
2022-12-13T09:03:58.812Z,100407.50
2022-12-13T09:14:33.645Z,100420.72
2022-12-13T09:44:31.959Z,100451.66
2022-12-13T09:52:41.159Z,100408.63
2022-12-13T10:01:23.503Z,100391.03
2022-12-13T10:11:59.003Z,100378.84
2022-12-13T10:20:08.265Z,100419.59
2022-12-13T11:30:14.194Z,100401.94
2022-12-13T11:33:03.663Z,100405.38
2022-12-13T11:48:14.413Z,100383.00
2022-12-13T11:53:51.070Z,100361.59
2022-12-13T11:59:40.187Z,100389.88
2022-12-13T12:02:16.671Z,100396.75
2022-12-13T12:10:50.480Z,100370.13
2022-12-13T12:13:23.749Z,100356.34
2022-12-13T12:16:18.106Z,100389.75
2022-12-13T12:18:50.246Z,100340.91
2022-12-13T12:30:23.154Z,100393.16
2022-12-13T12:32:56.425Z,100386.28
2022-12-13T12:35:57.141Z,100393.13
2022-12-13T12:38:45.234Z,100385.38
2022-12-13T12:44:46.788Z,100396.50
2022-12-13T12:48:42.793Z,100403.38
2022-12-13T12:50:46.017Z,100358.81
2022-12-13T12:53:29.283Z,100397.38
2022-12-13T12:56:21.063Z,100372.41
2022-12-13T12:59:04.977Z,100360.53
2022-12-13T13:01:44.192Z,100397.31
2022-12-13T13:04:22.128Z,100343.34
2022-12-13T13:07:04.177Z,100324.38
2022-12-13T13:09:51.355Z,100355.22
2022-12-13T13:12:30.310Z,100337.22
2022-12-13T13:14:57.909Z,100356.81
2022-12-13T13:17:24.552Z,100406.53
2022-12-13T13:20:12.549Z,100407.44
2022-12-13T13:22:44.178Z,100385.97
2022-12-13T13:25:27.613Z,100400.41
2022-12-13T13:28:22.323Z,100400.50
2022-12-13T13:31:08.959Z,100391.75
2022-12-13T13:33:51.380Z,100395.22
2022-12-13T13:36:39.602Z,100390.03
2022-12-13T13:39:16.330Z,100386.59
2022-12-13T13:41:52.115Z,100392.53
2022-12-13T13:44:55.716Z,100383.84
2022-12-13T13:47:25.167Z,100384.78
2022-12-13T13:50:12.968Z,100378.75
2022-12-13T13:53:49.265Z,100349.56
2022-12-13T13:56:27.669Z,100375.34
2022-12-13T13:59:13.568Z,100377.09
2022-12-13T14:01:59.716Z,100378.81
2022-12-13T14:04:43.091Z,100378.78
2022-12-13T16:57:19.077Z,100323.84
2022-12-13T20:04:30.392Z,100333.28
2022-12-13T20:06:57.320Z,100304.09
2022-12-13T20:09:24.311Z,100337.50
2022-12-13T20:11:51.080Z,100260.41
2022-12-13T20:14:17.800Z,100301.53
2022-12-13T20:16:44.535Z,100317.81
2022-12-13T20:19:11.295Z,100309.25
2022-12-13T20:21:38.237Z,100298.06
2022-12-13T20:24:05.343Z,100301.50
2022-12-13T20:26:33.325Z,100274.94
2022-12-13T20:29:00.586Z,100325.53
2022-12-13T20:31:33.597Z,100282.63
2022-12-13T20:34:04.462Z,100319.47
2022-12-13T20:36:31.671Z,100319.50
2022-12-13T20:39:03.706Z,100326.38
2022-12-13T20:41:32.005Z,100272.38
2022-12-13T20:44:01.263Z,100325.50
2022-12-13T20:46:29.217Z,100266.38
2022-12-13T20:48:57.929Z,100302.41
2022-12-13T20:51:27.727Z,100317.78
2022-12-13T20:53:55.202Z,100333.25
2022-12-13T20:56:25.950Z,100334.97
2022-12-13T20:58:52.918Z,100280.13
2022-12-13T21:01:25.245Z,100295.56
2022-12-13T21:03:56.940Z,100334.09
2022-12-13T21:06:23.696Z,100309.25
2022-12-13T21:08:54.044Z,100341.00
2022-12-13T21:11:27.186Z,100297.28
2022-12-13T21:13:57.665Z,100339.25
2022-12-13T21:16:29.596Z,100315.22
2022-12-13T21:18:57.861Z,100334.97
2022-12-13T21:21:25.694Z,100335.81
2022-12-13T21:23:54.204Z,100317.81
2022-12-13T21:26:23.201Z,100296.44
2022-12-13T21:28:58.464Z,100318.69
2022-12-13T21:31:26.787Z,100315.25
2022-12-13T21:33:58.154Z,100310.13
2022-12-13T21:36:27.401Z,100335.00
2022-12-13T21:38:56.262Z,100313.53
2022-12-13T21:41:23.433Z,100326.41
2022-12-13T21:43:51.223Z,100335.84
2022-12-13T21:46:20.368Z,100328.09
2022-12-13T21:48:48.507Z,100318.59
2022-12-13T21:51:17.206Z,100245.75
2022-12-13T21:53:46.158Z,100254.31
2022-12-13T21:56:34.621Z,100318.50
2022-12-13T21:59:16.480Z,100327.16
2022-12-13T22:02:06.311Z,100321.97
2022-12-13T22:04:34.557Z,100304.81
2022-12-13T22:07:01.574Z,100325.47
2022-12-13T22:09:28.744Z,100320.28
2022-12-13T22:11:55.878Z,100321.09
2022-12-13T22:14:22.736Z,100309.94
2022-12-13T22:16:49.536Z,100298.78
2022-12-13T22:19:17.674Z,100319.34
2022-12-13T22:21:44.691Z,100259.38
2022-12-13T22:24:12.365Z,100332.19
2022-12-13T22:26:40.383Z,100321.03
2022-12-13T22:29:07.075Z,100277.38
2022-12-13T22:31:34.162Z,100314.19
2022-12-13T22:34:00.996Z,100306.34
2022-12-13T22:36:27.672Z,100303.75
2022-12-13T22:38:54.399Z,100293.44
2022-12-13T22:41:21.330Z,100283.06
2022-12-13T22:43:48.356Z,100266.81
2022-12-13T22:46:18.233Z,100294.13
2022-12-13T22:48:44.961Z,100265.78
2022-12-13T22:51:16.693Z,100308.59
2022-12-13T22:53:45.471Z,100304.38
2022-12-13T22:56:14.794Z,100308.69
2022-12-13T22:58:41.801Z,100300.97
2022-12-13T23:01:13.500Z,100309.53
2022-12-13T23:03:41.710Z,100221.41
2022-12-13T23:06:14.698Z,100296.72
2022-12-13T23:08:43.610Z,100299.38
2022-12-13T23:11:30.853Z,100250.59
2022-12-13T23:13:59.420Z,100270.31
2022-12-13T23:16:29.390Z,100293.38
2022-12-13T23:19:16.972Z,100239.53
2022-12-13T23:21:43.878Z,100253.19
2022-12-13T23:24:15.833Z,100288.41
2022-12-13T23:26:42.627Z,100230.22
2022-12-13T23:29:10.305Z,100293.56
2022-12-13T23:31:48.746Z,100284.09
2022-12-13T23:34:16.626Z,100290.94
2022-12-13T23:36:43.434Z,100297.91
2022-12-13T23:39:11.599Z,100262.75
2022-12-13T23:41:38.633Z,100290.16
2022-12-13T23:44:05.397Z,100253.34
2022-12-13T23:46:34.561Z,100295.31
2022-12-13T23:49:02.435Z,100286.75
2022-12-13T23:51:29.410Z,100302.28
2022-12-13T23:53:56.449Z,100264.50
2022-12-13T23:56:23.677Z,100262.00
2022-12-13T23:58:50.878Z,100296.22
